Time;durP1;ratioP1;P1;durP2;ratioP2;P2;SDS_P1;SDS_P2;PMS_P1;PMS_P2;Temp;Humidity;BMP_temperature;BMP_pressure;BME280_temperature;BME280_humidity;BME280_pressure;Samples;Min_cycle;Max_cycle;Signal;HPM_P1;HPM_P2
2022/08/24 00:01:59;;;;;;;3.60;3.33;;;18.00;99.90;;;;;;5052878;28;20276;-88
2022/08/24 00:04:28;;;;;;;3.70;3.40;;;18.10;99.90;;;;;;5053241;28;20209;-87
2022/08/24 00:06:59;;;;;;;4.63;4.22;;;18.10;99.90;;;;;;5053852;28;20209;-87
2022/08/24 00:09:27;;;;;;;4.00;3.70;;;18.10;99.90;;;;;;5053643;28;20240;-87
2022/08/24 00:11:56;;;;;;;3.90;3.60;;;18.10;99.90;;;;;;5053571;28;20221;-87
2022/08/24 00:14:24;;;;;;;3.83;3.42;;;18.10;99.90;;;;;;5052839;28;20228;-87
2022/08/24 00:16:54;;;;;;;3.45;3.22;;;18.10;99.90;;;;;;5053094;28;20250;-88
2022/08/24 00:19:23;;;;;;;3.75;3.45;;;18.10;99.90;;;;;;5053196;28;20206;-88
2022/08/24 00:21:51;;;;;;;9.23;3.13;;;18.00;99.90;;;;;;5053112;28;20310;-88
2022/08/24 00:24:20;;;;;;;3.88;3.58;;;18.10;99.90;;;;;;5053327;28;20260;-87
2022/08/24 00:26:49;;;;;;;4.20;3.90;;;18.10;99.90;;;;;;5052360;28;20297;-87
2022/08/24 00:29:18;;;;;;;3.17;2.97;;;18.00;99.90;;;;;;5052214;28;20284;-88
2022/08/24 00:31:47;;;;;;;3.17;2.92;;;18.00;99.90;;;;;;5051976;28;20285;-87
2022/08/24 00:34:17;;;;;;;4.43;4.05;;;18.10;99.90;;;;;;5052456;28;20252;-88
2022/08/24 00:36:46;;;;;;;3.72;3.50;;;18.10;99.90;;;;;;5052404;28;20210;-88
2022/08/24 00:39:15;;;;;;;3.60;3.33;;;18.10;99.90;;;;;;5051975;28;20293;-88
2022/08/24 00:41:47;;;;;;;4.13;3.83;;;18.10;99.90;;;;;;5052303;28;20248;-88
2022/08/24 00:44:16;;;;;;;4.78;3.47;;;18.10;99.90;;;;;;5052056;28;20197;-88
2022/08/24 00:46:50;;;;;;;4.00;3.70;;;18.10;99.90;;;;;;5054440;28;20273;-88
2022/08/24 00:49:27;;;;;;;3.53;3.00;;;18.10;99.90;;;;;;5056041;28;20233;-87
2022/08/24 00:52:02;;;;;;;3.45;3.25;;;18.10;99.90;;;;;;5056001;28;20241;-88
2022/08/24 00:54:33;;;;;;;6.28;3.55;;;18.10;99.90;;;;;;5055771;28;20249;-88
2022/08/24 00:57:09;;;;;;;4.13;3.60;;;18.10;99.90;;;;;;5055869;28;20214;-88
2022/08/24 00:59:41;;;;;;;3.38;3.13;;;18.10;99.90;;;;;;5055685;28;20233;-87
2022/08/24 01:02:19;;;;;;;3.42;3.20;;;18.10;99.90;;;;;;5056216;28;20312;-88
2022/08/24 01:04:53;;;;;;;3.75;3.45;;;18.10;99.90;;;;;;5055871;28;20194;-88
2022/08/24 01:07:23;;;;;;;3.40;3.10;;;18.10;99.90;;;;;;5055665;28;20272;-88
2022/08/24 01:09:53;;;;;;;3.67;3.38;;;18.10;99.90;;;;;;5055199;28;20293;-87
2022/08/24 01:12:23;;;;;;;3.30;3.10;;;18.10;99.90;;;;;;5055610;28;20225;-87
2022/08/24 01:14:51;;;;;;;4.97;3.97;;;18.10;99.90;;;;;;5055601;28;20286;-87
2022/08/24 01:20:10;;;;;;;2.88;2.67;;;18.10;99.90;;;;;;5055209;28;20209;-87
2022/08/24 01:22:55;;;;;;;3.53;3.22;;;18.10;99.90;;;;;;5055287;28;20222;-87
2022/08/24 01:25:27;;;;;;;3.38;3.17;;;18.10;99.90;;;;;;5055304;28;20201;-87
2022/08/24 01:27:59;;;;;;;3.80;3.28;;;18.10;99.90;;;;;;5055611;28;20284;-87
2022/08/24 01:30:29;;;;;;;4.13;3.58;;;18.10;99.90;;;;;;5054959;28;20225;-87
2022/08/24 01:33:06;;;;;;;3.40;3.20;;;18.10;99.90;;;;;;5054942;28;20286;-88
2022/08/24 01:35:38;;;;;;;3.72;3.45;;;18.10;99.90;;;;;;5054762;28;20272;-88
2022/08/24 01:38:10;;;;;;;3.13;2.92;;;18.10;99.90;;;;;;5055361;28;20269;-88
2022/08/24 01:40:45;;;;;;;2.97;2.78;;;18.10;99.90;;;;;;5055220;28;20239;-87
2022/08/24 01:43:15;;;;;;;3.58;3.35;;;18.10;99.90;;;;;;5055012;28;20229;-87
2022/08/24 01:45:44;;;;;;;3.67;3.40;;;18.10;99.90;;;;;;5054756;28;20293;-87
2022/08/24 01:48:13;;;;;;;3.35;3.15;;;18.10;99.90;;;;;;5054814;28;20252;-87
2022/08/24 01:50:50;;;;;;;3.38;3.08;;;18.10;99.90;;;;;;5054762;28;20301;-87
2022/08/24 01:53:19;;;;;;;3.42;3.22;;;18.10;99.90;;;;;;5054867;28;20201;-88
2022/08/24 01:55:49;;;;;;;3.10;2.83;;;18.10;99.90;;;;;;5054574;28;20304;-87
2022/08/24 01:58:18;;;;;;;3.47;3.22;;;18.10;99.90;;;;;;5054021;28;20288;-87
2022/08/24 02:00:46;;;;;;;3.22;3.00;;;18.10;99.90;;;;;;5054383;28;20205;-87
2022/08/24 02:03:14;;;;;;;3.28;3.08;;;18.00;99.90;;;;;;5054545;28;20201;-88
2022/08/24 02:05:43;;;;;;;3.78;3.42;;;18.10;99.90;;;;;;5054581;28;20213;-88
2022/08/24 02:08:11;;;;;;;3.25;3.03;;;18.00;99.90;;;;;;5054615;28;20285;-88
2022/08/24 02:10:40;;;;;;;4.15;3.75;;;18.10;99.90;;;;;;5054422;28;20229;-87
2022/08/24 02:13:14;;;;;;;3.17;2.97;;;18.00;99.90;;;;;;5054362;28;20210;-87
2022/08/24 02:15:42;;;;;;;3.85;3.55;;;18.00;99.90;;;;;;5054329;28;20305;-88
2022/08/24 02:18:15;;;;;;;3.88;3.55;;;18.00;99.90;;;;;;5054289;28;20205;-87
2022/08/24 02:20:43;;;;;;;4.05;3.67;;;18.10;99.90;;;;;;5053867;28;20285;-86
2022/08/24 02:23:12;;;;;;;3.35;3.10;;;18.00;99.90;;;;;;5054542;28;20206;-87
2022/08/24 02:25:40;;;;;;;3.38;3.08;;;18.10;99.90;;;;;;5054458;28;20205;-87
2022/08/24 02:28:08;;;;;;;3.65;3.30;;;18.00;99.90;;;;;;5054147;28;20284;-87
2022/08/24 02:30:39;;;;;;;3.13;2.92;;;18.10;99.90;;;;;;5053672;28;20208;-87
2022/08/24 02:33:08;;;;;;;3.30;3.10;;;18.10;99.90;;;;;;5054050;28;20268;-87
2022/08/24 02:35:36;;;;;;;3.08;2.88;;;18.00;99.90;;;;;;5054416;28;20313;-87
2022/08/24 02:38:05;;;;;;;4.15;3.63;;;18.10;99.90;;;;;;5054077;28;20214;-87
2022/08/24 02:40:33;;;;;;;3.67;3.38;;;18.10;99.90;;;;;;5054016;28;20208;-87
2022/08/24 02:43:01;;;;;;;4.22;3.90;;;18.10;99.90;;;;;;5053866;28;20293;-87
2022/08/24 02:45:30;;;;;;;3.38;3.10;;;18.10;99.90;;;;;;5053654;28;20209;-87
2022/08/24 02:48:00;;;;;;;4.00;3.55;;;18.10;99.90;;;;;;5053964;28;20213;-87
2022/08/24 02:50:28;;;;;;;3.53;3.30;;;18.10;99.90;;;;;;5053690;28;20284;-87
2022/08/24 02:52:57;;;;;;;4.38;3.92;;;18.10;99.90;;;;;;5053577;28;20252;-87
2022/08/24 02:55:25;;;;;;;3.80;3.50;;;18.10;99.90;;;;;;5053724;28;20237;-87
2022/08/24 02:57:53;;;;;;;4.90;4.45;;;18.10;99.90;;;;;;5053412;28;20237;-88
2022/08/24 03:00:23;;;;;;;3.83;3.50;;;18.20;99.90;;;;;;5053372;28;20262;-87
2022/08/24 03:02:53;;;;;;;4.00;3.70;;;18.10;99.90;;;;;;5053487;28;20256;-87
2022/08/24 03:05:24;;;;;;;9.77;4.32;;;18.10;99.90;;;;;;5053811;28;20255;-87
2022/08/24 03:07:53;;;;;;;3.47;3.17;;;18.20;99.90;;;;;;5059022;28;20220;-85
2022/08/24 03:10:21;;;;;;;4.13;3.72;;;18.20;99.90;;;;;;5058834;28;20265;-87
2022/08/24 03:12:50;;;;;;;4.05;3.70;;;18.20;99.90;;;;;;5053394;28;20229;-87
2022/08/24 03:15:20;;;;;;;4.93;4.15;;;18.20;99.90;;;;;;5053270;28;20305;-87
2022/08/24 03:17:49;;;;;;;4.05;3.75;;;18.20;99.90;;;;;;5053595;28;20276;-86
2022/08/24 03:20:21;;;;;;;5.13;3.95;;;18.20;99.90;;;;;;5053076;28;20289;-87
2022/08/24 03:22:51;;;;;;;4.43;4.05;;;18.20;99.90;;;;;;5053002;28;20260;-86
2022/08/24 03:25:23;;;;;;;4.32;4.03;;;18.20;99.90;;;;;;5052880;28;20288;-87
2022/08/24 03:27:52;;;;;;;4.22;3.83;;;18.30;99.90;;;;;;5053205;28;20202;-87
2022/08/24 03:30:22;;;;;;;4.50;3.63;;;18.30;99.90;;;;;;5052779;28;20273;-87
2022/08/24 03:32:51;;;;;;;4.63;4.22;;;18.30;99.90;;;;;;5052723;28;20253;-87
2022/08/24 03:35:21;;;;;;;3.38;3.15;;;18.30;99.90;;;;;;5052769;28;20332;-87
2022/08/24 03:37:51;;;;;;;4.63;4.10;;;18.30;99.90;;;;;;5053281;28;20232;-88
2022/08/24 03:40:22;;;;;;;5.35;4.07;;;18.30;99.90;;;;;;5052836;28;20295;-87
2022/08/24 03:42:52;;;;;;;4.10;3.80;;;18.30;99.90;;;;;;5052859;28;20308;-87
2022/08/24 03:45:21;;;;;;;4.88;4.47;;;18.30;99.90;;;;;;5052951;28;20240;-87
2022/08/24 03:47:49;;;;;;;3.63;3.35;;;18.30;99.90;;;;;;5052417;28;20283;-87
2022/08/24 03:50:18;;;;;;;4.60;4.20;;;18.30;99.90;;;;;;5052396;28;20301;-88
2022/08/24 03:52:47;;;;;;;4.88;4.47;;;18.30;99.90;;;;;;5052972;28;20221;-86
2022/08/24 03:55:17;;;;;;;4.53;4.13;;;18.30;99.90;;;;;;5052753;28;20226;-87
2022/08/24 03:57:46;;;;;;;3.47;3.25;;;18.30;99.90;;;;;;5053012;28;20288;-87
2022/08/24 04:00:14;;;;;;;4.20;3.80;;;18.30;99.90;;;;;;5052370;28;20265;-87
2022/08/24 04:02:43;;;;;;;3.95;3.65;;;18.30;99.90;;;;;;5052544;28;20312;-87
2022/08/24 04:05:13;;;;;;;4.07;3.67;;;18.20;99.90;;;;;;5052335;28;20212;-87
2022/08/24 04:07:41;;;;;;;4.13;3.47;;;18.20;99.90;;;;;;5052718;28;20293;-87
2022/08/24 04:10:12;;;;;;;4.03;3.72;;;18.20;99.90;;;;;;5052996;28;20296;-87
2022/08/24 04:12:42;;;;;;;4.32;4.03;;;18.10;99.90;;;;;;5052402;28;20233;-87
2022/08/24 04:15:11;;;;;;;3.72;3.40;;;18.20;99.90;;;;;;5052563;28;20297;-87
2022/08/24 04:17:40;;;;;;;4.28;3.88;;;18.10;99.90;;;;;;5052671;28;20229;-87
2022/08/24 04:20:09;;;;;;;4.40;3.92;;;18.10;99.90;;;;;;5052364;28;20212;-87
2022/08/24 04:22:38;;;;;;;3.95;3.65;;;18.10;99.90;;;;;;5056021;28;20317;-87
2022/08/24 04:25:07;;;;;;;4.45;3.70;;;18.20;99.90;;;;;;5056622;28;20221;-87
2022/08/24 04:27:37;;;;;;;3.58;3.28;;;18.10;99.90;;;;;;5056532;28;20213;-87
2022/08/24 04:30:08;;;;;;;4.40;3.58;;;18.20;99.90;;;;;;5056270;28;20210;-87
2022/08/24 04:32:41;;;;;;;3.88;3.58;;;18.20;99.90;;;;;;5055966;28;20252;-87
2022/08/24 04:35:10;;;;;;;5.78;3.58;;;18.20;99.90;;;;;;5056315;28;20292;-87
2022/08/24 04:37:38;;;;;;;4.05;3.75;;;18.20;99.90;;;;;;5056323;28;20312;-87
2022/08/24 04:40:07;;;;;;;3.63;3.33;;;18.20;99.90;;;;;;5056141;28;20293;-88
2022/08/24 04:42:36;;;;;;;3.42;3.20;;;18.20;99.90;;;;;;5056013;28;20221;-87
2022/08/24 04:45:06;;;;;;;3.63;3.35;;;18.30;99.90;;;;;;5056179;28;20265;-87
2022/08/24 04:47:35;;;;;;;4.15;3.85;;;18.30;99.90;;;;;;5055727;28;20229;-87
2022/08/24 04:50:03;;;;;;;3.55;3.28;;;18.30;99.90;;;;;;5055894;28;20240;-87
2022/08/24 04:52:31;;;;;;;4.25;3.90;;;18.30;99.90;;;;;;5055925;28;20312;-87
2022/08/24 04:54:59;;;;;;;3.65;3.35;;;18.30;99.90;;;;;;5055934;28;20268;-87
2022/08/24 04:57:28;;;;;;;4.80;4.30;;;18.30;99.90;;;;;;5055689;28;20300;-87
2022/08/24 04:59:57;;;;;;;4.75;3.83;;;18.40;99.90;;;;;;5055812;28;20255;-86
2022/08/24 05:02:26;;;;;;;3.70;3.40;;;18.40;99.90;;;;;;5055904;28;20285;-87
2022/08/24 05:04:57;;;;;;;6.82;3.97;;;18.40;99.90;;;;;;5055938;28;20284;-87
2022/08/24 05:07:25;;;;;;;3.90;3.58;;;18.50;99.90;;;;;;5056020;28;20293;-87
2022/08/24 05:09:55;;;;;;;3.75;3.45;;;18.50;99.90;;;;;;5055351;28;20218;-87
2022/08/24 05:12:26;;;;;;;3.58;3.28;;;18.50;99.90;;;;;;5055821;28;20233;-87
2022/08/24 05:14:54;;;;;;;3.72;3.42;;;18.50;99.90;;;;;;5055715;28;20221;-87
2022/08/24 05:17:22;;;;;;;4.47;3.65;;;18.60;99.90;;;;;;5055349;28;20230;-87
2022/08/24 05:19:52;;;;;;;4.15;3.42;;;18.60;99.90;;;;;;5055569;28;20301;-87
2022/08/24 05:22:21;;;;;;;3.75;3.45;;;18.60;99.90;;;;;;5055478;28;20305;-87
2022/08/24 05:24:49;;;;;;;4.18;3.78;;;18.60;99.90;;;;;;5055329;28;20261;-87
2022/08/24 05:27:18;;;;;;;3.58;3.33;;;18.70;99.90;;;;;;5055365;28;20281;-87
2022/08/24 05:29:46;;;;;;;3.70;3.40;;;18.70;99.90;;;;;;5055256;28;20289;-87
2022/08/24 05:32:16;;;;;;;3.75;3.45;;;18.70;99.90;;;;;;5054203;28;20242;-87
2022/08/24 05:34:45;;;;;;;4.30;3.78;;;18.70;99.90;;;;;;5054822;28;20213;-87
2022/08/24 05:37:14;;;;;;;3.85;3.55;;;18.80;99.90;;;;;;5055349;28;20321;-87
2022/08/24 05:39:43;;;;;;;3.88;3.60;;;18.80;99.90;;;;;;5055479;28;20293;-87
2022/08/24 05:42:12;;;;;;;3.55;3.25;;;18.90;99.90;;;;;;5054839;28;20253;-87
2022/08/24 05:44:40;;;;;;;3.72;3.42;;;18.90;99.90;;;;;;5055095;28;20209;-86
2022/08/24 05:47:09;;;;;;;3.70;3.40;;;18.90;99.90;;;;;;5054902;28;20226;-87
2022/08/24 05:49:37;;;;;;;3.42;3.22;;;18.90;99.90;;;;;;5054481;28;20232;-87
2022/08/24 05:52:09;;;;;;;4.68;3.90;;;18.90;99.90;;;;;;5054744;28;20226;-86
2022/08/24 05:54:39;;;;;;;3.92;3.53;;;18.90;99.90;;;;;;5054876;28;20205;-86
2022/08/24 05:57:10;;;;;;;3.80;3.50;;;19.00;99.90;;;;;;5055095;28;20217;-87
2022/08/24 05:59:38;;;;;;;4.05;3.53;;;19.00;99.90;;;;;;5054602;28;20298;-86
2022/08/24 06:02:08;;;;;;;3.55;3.30;;;19.00;99.90;;;;;;5054497;28;20222;-87
2022/08/24 06:04:37;;;;;;;9.65;3.50;;;19.00;99.90;;;;;;5054830;28;20216;-86
2022/08/24 06:07:08;;;;;;;3.35;3.15;;;19.00;99.90;;;;;;5054608;28;20278;-87
2022/08/24 06:09:38;;;;;;;3.78;3.38;;;19.00;99.90;;;;;;5054367;28;20333;-87
2022/08/24 06:12:08;;;;;;;4.75;3.20;;;19.10;99.90;;;;;;5054389;28;20271;-87
2022/08/24 06:14:36;;;;;;;4.15;3.75;;;19.10;99.90;;;;;;5054692;28;20289;-86
2022/08/24 06:17:06;;;;;;;4.43;3.97;;;19.10;99.90;;;;;;5054480;28;20280;-87
2022/08/24 06:19:35;;;;;;;3.40;3.20;;;19.10;99.90;;;;;;5054808;28;20214;-86
2022/08/24 06:22:04;;;;;;;4.30;3.90;;;19.20;99.90;;;;;;5058042;28;20256;-86
2022/08/24 06:27:22;;;;;;;14.38;3.42;;;19.20;99.90;;;;;;5054301;28;20281;-87
2022/08/24 06:29:52;;;;;;;5.03;3.97;;;19.30;99.90;;;;;;5054171;28;20240;-87
2022/08/24 06:32:20;;;;;;;3.65;3.17;;;19.30;99.90;;;;;;5053714;28;20241;-86
2022/08/24 06:34:49;;;;;;;3.33;3.13;;;19.40;99.90;;;;;;5054086;28;20201;-86
2022/08/24 06:37:18;;;;;;;3.70;3.47;;;19.40;99.90;;;;;;5053940;28;20304;-86
2022/08/24 06:39:47;;;;;;;4.10;3.70;;;19.50;99.90;;;;;;5053697;28;20201;-86
2022/08/24 06:42:28;;;;;;;4.35;3.95;;;19.50;99.90;;;;;;5053903;28;20236;-87
2022/08/24 06:44:56;;;;;;;4.78;4.38;;;19.70;99.90;;;;;;5053325;28;20259;-87
2022/08/24 06:47:24;;;;;;;5.78;4.20;;;19.70;99.90;;;;;;5053914;28;20202;-87
2022/08/24 06:49:52;;;;;;;7.72;4.15;;;19.80;99.90;;;;;;5053685;28;20209;-87
2022/08/24 06:52:21;;;;;;;4.05;3.65;;;19.90;99.90;;;;;;5053689;28;20317;-87
2022/08/24 06:54:51;;;;;;;6.38;3.72;;;20.00;99.90;;;;;;5054062;28;20201;-88
2022/08/24 06:57:20;;;;;;;3.90;3.60;;;20.00;99.90;;;;;;5053482;28;20312;-87
2022/08/24 06:59:49;;;;;;;4.10;3.70;;;20.10;99.90;;;;;;5053797;28;20237;-87
2022/08/24 07:02:18;;;;;;;4.88;3.90;;;20.10;99.90;;;;;;5053395;28;20279;-87
2022/08/24 07:04:47;;;;;;;3.80;3.50;;;20.20;99.90;;;;;;5053392;28;20240;-87
2022/08/24 07:07:17;;;;;;;4.35;3.97;;;20.20;99.90;;;;;;5053863;28;20202;-87
2022/08/24 07:09:45;;;;;;;4.30;3.90;;;20.30;99.90;;;;;;5053275;28;20267;-87
2022/08/24 07:12:14;;;;;;;11.77;4.10;;;20.40;99.90;;;;;;5053457;28;20297;-87
2022/08/24 07:14:42;;;;;;;4.25;3.90;;;20.40;99.90;;;;;;5053226;28;20297;-87
2022/08/24 07:17:12;;;;;;;4.88;4.47;;;20.40;99.90;;;;;;5053310;28;20317;-87
2022/08/24 07:19:41;;;;;;;4.18;3.88;;;20.40;99.90;;;;;;5053324;28;20206;-87
2022/08/24 07:22:09;;;;;;;4.32;3.92;;;20.40;99.90;;;;;;5053349;28;20313;-87
2022/08/24 07:24:37;;;;;;;3.63;3.40;;;20.50;99.90;;;;;;5053051;28;20288;-87
2022/08/24 07:27:06;;;;;;;4.03;3.72;;;20.60;99.90;;;;;;5052748;28;20269;-87
2022/08/24 07:29:34;;;;;;;4.78;4.38;;;20.60;99.90;;;;;;5053016;28;20229;-88
2022/08/24 07:32:19;;;;;;;4.63;4.20;;;20.80;99.90;;;;;;5052809;28;20238;-87
2022/08/24 07:34:48;;;;;;;4.80;4.20;;;21.10;99.90;;;;;;5052853;28;20261;-87
2022/08/24 07:37:16;;;;;;;3.47;3.28;;;21.10;99.90;;;;;;5053211;28;20234;-87
2022/08/24 07:39:44;;;;;;;5.20;4.70;;;21.30;99.90;;;;;;5052703;28;20224;-86
2022/08/24 07:42:13;;;;;;;4.03;3.72;;;21.40;99.90;;;;;;5053012;28;20226;-87
2022/08/24 07:44:52;;;;;;;3.28;3.08;;;21.40;99.90;;;;;;5053320;28;20210;-87
2022/08/24 07:47:22;;;;;;;3.78;3.47;;;21.50;99.90;;;;;;5052262;28;20194;-87
2022/08/24 07:50:11;;;;;;;4.35;3.90;;;21.60;99.90;;;;;;5052370;28;20297;-87
2022/08/24 07:52:40;;;;;;;3.67;3.25;;;21.60;99.90;;;;;;5052793;28;20249;-87
2022/08/24 07:55:10;;;;;;;5.85;3.58;;;21.60;99.90;;;;;;5052244;28;20232;-87
2022/08/24 07:57:39;;;;;;;3.65;3.35;;;21.70;99.90;;;;;;5052395;28;20289;-87
2022/08/24 08:00:11;;;;;;;3.33;3.08;;;21.90;99.90;;;;;;5052928;28;20197;-87
2022/08/24 08:02:45;;;;;;;5.32;3.10;;;22.00;99.90;;;;;;5052605;28;20425;-87
2022/08/24 08:05:14;;;;;;;4.00;3.70;;;22.30;99.90;;;;;;5052569;28;20232;-87
2022/08/24 08:07:42;;;;;;;3.00;2.80;;;22.60;99.90;;;;;;5052313;28;20257;-86
2022/08/24 08:10:13;;;;;;;4.38;4.03;;;22.90;99.90;;;;;;5052712;28;20267;-86
2022/08/24 08:12:42;;;;;;;3.85;3.55;;;23.00;99.90;;;;;;5053045;28;20221;-86
2022/08/24 08:15:12;;;;;;;3.78;3.35;;;23.40;99.90;;;;;;5052998;28;20292;-87
2022/08/24 08:17:41;;;;;;;4.00;3.70;;;23.80;99.90;;;;;;5052027;28;20281;-86
2022/08/24 08:20:11;;;;;;;3.55;3.33;;;24.10;99.90;;;;;;5052263;28;20202;-86
2022/08/24 08:25:26;;;;;;;3.60;3.30;;;24.10;99.90;;;;;;5052581;28;20260;-86
2022/08/24 08:27:55;;;;;;;3.97;3.67;;;24.30;99.90;;;;;;5052415;28;20213;-86
2022/08/24 08:30:34;;;;;;;3.10;2.90;;;24.30;99.90;;;;;;5052184;28;20206;-86
2022/08/24 08:33:05;;;;;;;2.72;2.53;;;24.60;99.90;;;;;;5051974;28;20234;-87
2022/08/24 08:35:33;;;;;;;3.60;3.38;;;24.90;99.90;;;;;;5052245;28;20297;-86
2022/08/24 08:38:02;;;;;;;3.28;3.05;;;25.40;99.90;;;;;;5052209;28;20304;-86
2022/08/24 08:40:43;;;;;;;3.58;3.28;;;25.90;99.90;;;;;;5052303;28;20205;-86
2022/08/24 08:43:27;;;;;;;3.53;3.22;;;26.10;99.90;;;;;;5052352;28;20202;-86
2022/08/24 08:46:20;;;;;;;3.13;2.92;;;26.50;99.90;;;;;;5052491;28;20273;-86
2022/08/24 08:49:09;;;;;;;3.40;3.10;;;26.90;99.90;;;;;;5050418;28;20202;-86
2022/08/24 08:52:13;;;;;;;2.95;2.70;;;27.50;99.90;;;;;;5052102;28;20222;-86
2022/08/24 08:54:59;;;;;;;2.45;2.35;;;27.80;99.90;;;;;;5052492;28;20293;-86
2022/08/24 08:57:44;;;;;;;3.97;3.63;;;28.00;99.90;;;;;;5052426;28;20214;-86
2022/08/24 09:00:16;;;;;;;3.50;3.20;;;28.00;99.90;;;;;;5052259;28;20259;-86
2022/08/24 09:03:21;;;;;;;4.55;3.85;;;28.30;99.90;;;;;;5051855;28;20317;-85
2022/08/24 09:06:15;;;;;;;2.95;2.75;;;28.00;99.90;;;;;;5051995;28;20288;-85
2022/08/24 09:09:09;;;;;;;3.15;2.95;;;28.20;99.90;;;;;;5055207;28;20205;-86
2022/08/24 09:11:47;;;;;;;3.78;2.95;;;28.30;99.90;;;;;;5054697;28;20239;-86
2022/08/24 09:14:41;;;;;;;4.28;3.45;;;28.00;99.90;;;;;;5055560;28;20213;-86
2022/08/24 09:17:23;;;;;;;3.05;2.85;;;27.70;99.90;;;;;;5055694;28;20206;-86
2022/08/24 09:20:06;;;;;;;3.17;2.88;;;28.00;99.90;;;;;;5054927;28;20316;-85
2022/08/24 09:22:39;;;;;;;3.10;2.90;;;27.90;99.90;;;;;;5055436;28;20230;-86
2022/08/24 09:25:19;;;;;;;4.05;3.40;;;27.60;99.90;;;;;;5055741;28;20209;-86
2022/08/24 09:28:12;;;;;;;3.10;2.85;;;27.30;99.90;;;;;;5055355;28;20209;-86
2022/08/24 09:31:10;;;;;;;3.20;3.00;;;27.00;99.90;;;;;;5054980;28;20252;-85
2022/08/24 09:33:44;;;;;;;3.78;3.45;;;26.70;99.90;;;;;;5055385;28;20208;-86
2022/08/24 09:36:23;;;;;;;3.30;3.10;;;26.60;99.90;;;;;;5057411;28;20236;-85
2022/08/24 09:39:06;;;;;;;3.85;3.53;;;27.00;99.90;;;;;;5057123;28;20252;-86
2022/08/24 09:42:17;;;;;;;3.20;3.00;;;27.80;99.90;;;;;;5054992;28;20239;-86
2022/08/24 09:45:19;;;;;;;3.35;3.15;;;28.20;99.90;;;;;;5055006;28;20283;-86
2022/08/24 09:48:15;;;;;;;19.52;3.67;;;28.40;99.90;;;;;;5054763;28;20213;-87
2022/08/24 09:51:05;;;;;;;3.35;3.15;;;29.20;99.90;;;;;;5053481;28;20217;-86
2022/08/24 09:54:20;;;;;;;2.95;2.75;;;30.20;99.90;;;;;;5055074;28;20205;-86
2022/08/24 09:57:06;;;;;;;2.53;2.42;;;30.90;99.90;;;;;;5056322;28;20210;-86
2022/08/24 10:00:04;;;;;;;2.92;2.72;;;31.10;99.90;;;;;;5056680;28;20217;-86
2022/08/24 10:02:57;;;;;;;3.08;2.88;;;31.00;99.90;;;;;;5056708;28;20221;-85
2022/08/24 10:05:33;;;;;;;2.92;2.72;;;30.60;99.90;;;;;;5056086;28;20259;-85
2022/08/24 10:08:14;;;;;;;3.70;3.40;;;30.40;99.90;;;;;;5055649;28;20274;-86
2022/08/24 10:10:51;;;;;;;3.72;3.42;;;29.80;99.90;;;;;;5054512;28;20289;-86
2022/08/24 10:13:29;;;;;;;3.47;3.17;;;29.40;99.90;;;;;;5054386;28;20293;-86
2022/08/24 10:16:13;;;;;;;3.20;3.00;;;28.40;99.90;;;;;;5054506;28;20205;-86
2022/08/24 10:18:54;;;;;;;5.50;3.40;;;27.40;99.90;;;;;;5053163;28;20245;-85
2022/08/24 10:21:38;;;;;;;3.65;3.40;;;27.30;99.90;;;;;;5054248;28;20302;-85
2022/08/24 10:24:21;;;;;;;3.97;3.67;;;28.10;99.90;;;;;;5054484;28;20220;-86
2022/08/24 10:27:20;;;;;;;3.47;3.17;;;28.80;99.90;;;;;;5053908;28;20201;-86
2022/08/24 10:30:36;;;;;;;3.30;3.10;;;28.80;99.90;;;;;;5054110;28;20293;-85
2022/08/24 10:33:15;;;;;;;3.58;3.28;;;28.30;99.90;;;;;;5022576;28;20246;-85
2022/08/24 10:35:58;;;;;;;4.03;3.72;;;27.70;99.90;;;;;;5054177;28;20281;-86
2022/08/24 10:41:55;;;;;;;4.45;4.05;;;26.90;99.90;;;;;;5053761;28;20222;-86
2022/08/24 10:44:49;;;;;;;4.07;3.78;;;26.70;99.90;;;;;;5052688;28;20236;-86
2022/08/24 10:47:25;;;;;;;3.75;3.45;;;27.10;99.90;;;;;;5053464;28;20205;-86
2022/08/24 10:50:19;;;;;;;3.70;3.47;;;27.60;99.90;;;;;;5053755;28;20270;-86
2022/08/24 10:53:18;;;;;;;3.25;3.05;;;28.50;99.90;;;;;;5053920;28;20268;-86
2022/08/24 10:55:51;;;;;;;4.00;3.70;;;29.00;99.90;;;;;;5053846;28;20229;-87
2022/08/24 10:58:38;;;;;;;3.72;3.42;;;29.30;99.90;;;;;;5053538;28;20297;-86
2022/08/24 11:01:21;;;;;;;4.55;4.15;;;28.70;99.90;;;;;;5053547;28;20225;-86
2022/08/24 11:03:55;;;;;;;4.57;4.18;;;28.10;99.90;;;;;;5053304;28;20222;-86
2022/08/24 11:06:32;;;;;;;3.72;3.42;;;28.10;99.90;;;;;;5053831;28;20209;-86
2022/08/24 11:09:05;;;;;;;4.40;3.60;;;28.30;99.90;;;;;;5053391;28;20202;-86
2022/08/24 11:11:35;;;;;;;4.30;3.90;;;28.00;99.90;;;;;;5053540;28;20231;-86
2022/08/24 11:14:22;;;;;;;3.88;3.58;;;27.30;99.90;;;;;;5053111;28;20205;-86
2022/08/24 11:16:50;;;;;;;4.10;3.80;;;26.80;99.90;;;;;;5053080;28;20288;-86
2022/08/24 11:19:35;;;;;;;4.30;3.65;;;26.40;99.90;;;;;;5052978;28;20225;-86
2022/08/24 11:22:06;;;;;;;3.85;3.33;;;26.70;99.90;;;;;;5053421;28;20313;-86
2022/08/24 11:24:45;;;;;;;4.57;4.18;;;27.50;99.90;;;;;;5053393;28;20292;-86
2022/08/24 11:27:25;;;;;;;4.75;4.35;;;28.30;99.90;;;;;;5053076;28;20211;-86
2022/08/24 11:29:59;;;;;;;3.85;3.55;;;29.00;99.90;;;;;;5052574;28;20263;-86
2022/08/24 11:32:37;;;;;;;4.43;3.70;;;29.70;99.90;;;;;;5052428;28;20253;-86
2022/08/24 11:35:15;;;;;;;3.30;3.10;;;30.30;99.90;;;;;;5053264;28;20221;-87
2022/08/24 11:37:45;;;;;;;3.90;3.60;;;30.40;99.90;;;;;;5053583;28;20456;-85
2022/08/24 11:40:15;;;;;;;4.90;4.40;;;29.90;99.90;;;;;;5052496;28;20229;-87
2022/08/24 11:43:21;;;;;;;3.63;3.33;;;29.50;99.90;;;;;;5052535;28;20233;-85
2022/08/24 11:46:02;;;;;;;4.60;4.20;;;28.70;99.90;;;;;;5046446;28;20228;-85
2022/08/24 11:48:42;;;;;;;4.50;4.20;;;28.10;99.90;;;;;;5052109;28;20216;-86
2022/08/24 11:51:20;;;;;;;4.30;4.00;;;27.80;99.90;;;;;;5052544;28;20313;-86
2022/08/24 11:53:58;;;;;;;4.47;3.72;;;28.00;99.90;;;;;;5052756;28;20206;-86
2022/08/24 11:56:36;;;;;;;4.32;3.92;;;28.80;99.90;;;;;;5052737;28;20205;-86
2022/08/24 11:59:11;;;;;;;5.35;4.68;;;29.80;99.90;;;;;;5052293;28;20240;-86
2022/08/24 12:01:47;;;;;;;4.20;3.88;;;30.60;99.90;;;;;;5052447;28;20221;-86
2022/08/24 12:04:41;;;;;;;4.95;4.53;;;31.40;99.90;;;;;;5052234;28;20240;-86
2022/08/24 12:07:26;;;;;;;3.90;3.67;;;31.60;99.90;;;;;;5052657;28;20277;-86
2022/08/24 12:10:17;;;;;;;5.13;4.60;;;31.20;99.90;;;;;;5052489;28;20265;-86
2022/08/24 12:12:52;;;;;;;6.13;4.28;;;30.50;99.90;;;;;;5052450;28;20221;-85
2022/08/24 12:15:34;;;;;;;4.28;3.97;;;29.50;99.90;;;;;;5052060;28;20205;-86
2022/08/24 12:18:10;;;;;;;4.28;3.97;;;28.90;99.90;;;;;;5052313;28;20213;-86
2022/08/24 12:20:42;;;;;;;4.30;3.90;;;28.50;99.90;;;;;;5052593;28;20217;-86
2022/08/24 12:23:24;;;;;;;4.60;4.20;;;28.10;99.90;;;;;;5052422;28;20209;-86
2022/08/24 12:26:04;;;;;;;4.20;3.85;;;27.70;99.90;;;;;;5052316;28;20235;-86
2022/08/24 12:28:38;;;;;;;4.57;4.18;;;27.60;99.90;;;;;;5052012;28;20215;-86
2022/08/24 12:31:17;;;;;;;4.60;4.20;;;28.20;99.90;;;;;;5051651;28;20319;-86
2022/08/24 12:33:50;;;;;;;3.97;3.67;;;29.20;99.90;;;;;;5052443;28;20217;-86
2022/08/24 12:36:25;;;;;;;5.00;4.07;;;29.90;99.90;;;;;;5052339;28;20296;-87
2022/08/24 12:39:06;;;;;;;4.80;4.40;;;30.40;99.90;;;;;;5051555;28;20209;-86
2022/08/24 12:41:38;;;;;;;4.00;3.70;;;30.80;99.90;;;;;;5051459;28;20256;-87
2022/08/24 12:44:11;;;;;;;4.85;4.45;;;31.20;99.90;;;;;;5055879;28;20296;-86
2022/08/24 12:46:42;;;;;;;4.07;3.67;;;30.90;99.90;;;;;;5055787;28;20259;-87
2022/08/24 12:49:20;;;;;;;4.70;4.30;;;30.10;99.90;;;;;;5055708;28;20210;-86
2022/08/24 12:52:14;;;;;;;4.35;4.05;;;29.30;99.90;;;;;;5055991;28;20252;-86
2022/08/24 12:55:09;;;;;;;4.28;3.95;;;28.60;99.90;;;;;;5055694;28;20265;-85
2022/08/24 12:57:52;;;;;;;4.75;4.30;;;28.30;99.90;;;;;;5048140;28;20232;-85
2022/08/24 13:00:45;;;;;;;4.28;3.97;;;28.50;99.90;;;;;;5056372;28;20226;-86
2022/08/24 13:03:30;;;;;;;3.47;3.28;;;29.00;99.90;;;;;;5055787;28;20209;-86
2022/08/24 13:06:02;;;;;;;4.38;3.97;;;29.40;99.90;;;;;;5055675;28;20240;-86
2022/08/24 13:08:37;;;;;;;4.38;4.07;;;29.70;99.90;;;;;;5055770;28;20257;-86
2022/08/24 13:11:13;;;;;;;4.60;4.20;;;29.90;99.90;;;;;;5055761;28;20222;-87
2022/08/24 13:13:46;;;;;;;4.45;4.05;;;29.90;99.90;;;;;;5055765;28;20263;-86
2022/08/24 13:16:49;;;;;;;4.50;4.10;;;29.70;99.90;;;;;;5055354;28;20225;-86
2022/08/24 13:19:33;;;;;;;4.53;4.13;;;29.10;99.90;;;;;;5055446;28;20202;-86
2022/08/24 13:22:37;;;;;;;3.80;3.60;;;28.70;99.90;;;;;;5054953;28;20297;-86
2022/08/24 13:25:23;;;;;;;4.45;4.05;;;28.60;99.90;;;;;;5057400;28;20284;-86
2022/08/24 13:28:08;;;;;;;4.00;3.70;;;28.60;99.90;;;;;;5056631;28;20210;-87
2022/08/24 13:31:19;;;;;;;3.95;3.65;;;28.80;99.90;;;;;;5055463;28;20214;-87
2022/08/24 13:33:51;;;;;;;4.32;3.92;;;29.00;99.90;;;;;;5054906;28;20213;-87
2022/08/24 13:36:57;;;;;;;3.88;3.58;;;29.30;99.90;;;;;;5055284;28;20291;-87